Time;durP1;ratioP1;P1;durP2;ratioP2;P2;SDS_P1;SDS_P2;PMS_P1;PMS_P2;Temp;Humidity;BMP_temperature;BMP_pressure;BME280_temperature;BME280_humidity;BME280_pressure;Samples;Min_cycle;Max_cycle;Signal;HPM_P1;HPM_P2
2022/08/15 00:02:18;;;;;;;;;8.75;6.00;;;;;;;;5104526;27;63640;-81
2022/08/15 00:04:44;;;;;;;;;7.75;5.50;;;;;;;;5106478;27;62011;-81
2022/08/15 00:07:09;;;;;;;;;7.50;7.50;;;;;;;;5104620;27;61967;-81
2022/08/15 00:09:34;;;;;;;;;8.00;7.50;;;;;;;;5106886;27;62152;-81
2022/08/15 00:12:00;;;;;;;;;8.25;7.50;;;;;;;;5104526;27;64654;-81
2022/08/15 00:14:27;;;;;;;;;10.25;9.00;;;;;;;;5106555;27;61889;-81
2022/08/15 00:16:53;;;;;;;;;9.00;8.50;;;;;;;;5106087;27;61600;-81
2022/08/15 00:19:20;;;;;;;;;8.25;6.50;;;;;;;;5105308;27;62122;-80
2022/08/15 00:21:47;;;;;;;;;10.00;9.50;;;;;;;;5105620;27;63232;-81
2022/08/15 00:24:15;;;;;;;;;10.00;7.50;;;;;;;;5105768;27;61863;-81
2022/08/15 00:26:41;;;;;;;;;9.50;8.50;;;;;;;;5106334;27;61900;-81
2022/08/15 00:29:07;;;;;;;;;10.75;10.25;;;;;;;;5105009;27;61728;-81
2022/08/15 00:31:32;;;;;;;;;11.00;10.00;;;;;;;;5103911;27;63691;-81
2022/08/15 00:33:59;;;;;;;;;8.50;8.50;;;;;;;;5106175;27;61768;-81
2022/08/15 00:36:24;;;;;;;;;11.00;8.75;;;;;;;;5106026;27;61861;-80
2022/08/15 00:38:49;;;;;;;;;11.00;10.00;;;;;;;;5106071;27;62170;-81
2022/08/15 00:44:00;;;;;;;;;10.00;10.00;;;;;;;;5105544;27;61884;-80
2022/08/15 00:46:26;;;;;;;;;9.75;9.75;;;;;;;;5106094;27;62551;-81
2022/08/15 00:48:53;;;;;;;;;11.00;8.00;;;;;;;;5104702;27;61862;-81
2022/08/15 00:51:18;;;;;;;;;13.00;10.25;;;;;;;;5103805;27;63490;-81
2022/08/15 00:53:46;;;;;;;;;13.50;11.50;;;;;;;;5106106;27;61695;-80
2022/08/15 00:56:12;;;;;;;;;14.50;11.00;;;;;;;;5104584;27;61847;-81
2022/08/15 00:58:39;;;;;;;;;14.00;10.00;;;;;;;;5105561;27;61936;-81
2022/08/15 01:01:06;;;;;;;;;10.25;10.25;;;;;;;;5103926;27;64475;-81
2022/08/15 01:03:33;;;;;;;;;8.75;8.75;;;;;;;;5105635;27;61702;-81
2022/08/15 01:05:59;;;;;;;;;13.00;11.00;;;;;;;;5103921;27;61852;-81
2022/08/15 01:08:34;;;;;;;;;13.50;11.00;;;;;;;;5104408;27;62132;-81
2022/08/15 01:11:02;;;;;;;;;12.00;10.00;;;;;;;;5103602;27;64846;-81
2022/08/15 01:13:28;;;;;;;;;12.00;10.75;;;;;;;;5105140;27;61880;-81
2022/08/15 01:15:53;;;;;;;;;13.25;9.75;;;;;;;;5104191;27;61918;-81
2022/08/15 01:18:19;;;;;;;;;11.25;10.50;;;;;;;;5104434;27;62033;-81
2022/08/15 01:20:45;;;;;;;;;11.75;9.00;;;;;;;;5102930;27;64652;-80
2022/08/15 01:23:32;;;;;;;;;13.00;11.00;;;;;;;;5104837;27;61776;-80
2022/08/15 01:25:59;;;;;;;;;15.00;13.50;;;;;;;;5103986;27;61957;-81
2022/08/15 01:28:27;;;;;;;;;12.25;11.25;;;;;;;;5105253;27;61678;-81
2022/08/15 01:30:55;;;;;;;;;10.25;8.25;;;;;;;;5103530;27;63842;-80
2022/08/15 01:33:22;;;;;;;;;13.00;12.00;;;;;;;;5104875;27;61801;-81
2022/08/15 01:35:48;;;;;;;;;11.75;10.00;;;;;;;;5105171;27;61808;-81
2022/08/15 01:38:19;;;;;;;;;11.50;9.75;;;;;;;;5105124;27;62085;-81
2022/08/15 01:41:04;;;;;;;;;12.25;10.25;;;;;;;;5103233;27;64075;-81
2022/08/15 01:43:33;;;;;;;;;12.00;12.00;;;;;;;;5103407;27;61772;-81
2022/08/15 01:46:00;;;;;;;;;13.00;9.00;;;;;;;;5104429;27;61797;-80
2022/08/15 01:48:32;;;;;;;;;12.00;8.75;;;;;;;;5104880;27;61569;-81
2022/08/15 01:51:01;;;;;;;;;12.00;10.00;;;;;;;;5102665;27;63908;-80
2022/08/15 01:53:32;;;;;;;;;11.00;11.00;;;;;;;;5104508;27;61678;-81
2022/08/15 01:56:03;;;;;;;;;13.25;11.25;;;;;;;;5104790;27;61753;-81
2022/08/15 01:58:29;;;;;;;;;13.50;12.00;;;;;;;;5104638;27;62031;-81
2022/08/15 02:00:58;;;;;;;;;12.75;11.75;;;;;;;;5104204;27;62082;-81
2022/08/15 02:03:33;;;;;;;;;14.25;10.00;;;;;;;;5103333;27;61750;-81
2022/08/15 02:06:00;;;;;;;;;12.00;12.00;;;;;;;;5104306;27;62289;-80
2022/08/15 02:08:25;;;;;;;;;14.00;12.00;;;;;;;;5104838;27;61916;-80
2022/08/15 02:10:50;;;;;;;;;10.25;10.25;;;;;;;;5104056;27;62618;-81
2022/08/15 02:13:16;;;;;;;;;15.00;13.00;;;;;;;;5104566;27;61997;-81
2022/08/15 02:15:42;;;;;;;;;13.50;11.75;;;;;;;;5104434;27;61758;-81
2022/08/15 02:18:07;;;;;;;;;17.00;16.00;;;;;;;;5104549;27;62135;-81
2022/08/15 02:20:33;;;;;;;;;13.00;11.00;;;;;;;;5102596;27;65071;-81
2022/08/15 02:22:58;;;;;;;;;14.50;11.50;;;;;;;;5102574;27;61871;-80
2022/08/15 02:25:24;;;;;;;;;12.75;11.00;;;;;;;;5102621;27;61861;-80
2022/08/15 02:27:50;;;;;;;;;13.25;11.00;;;;;;;;5104302;27;61798;-81
2022/08/15 02:30:16;;;;;;;;;15.25;12.25;;;;;;;;5103691;27;62001;-81
2022/08/15 02:32:43;;;;;;;;;13.00;12.75;;;;;;;;5104219;27;61655;-81
2022/08/15 02:35:11;;;;;;;;;12.75;12.00;;;;;;;;5104354;27;61695;-81
2022/08/15 02:37:37;;;;;;;;;15.50;12.00;;;;;;;;5104099;27;61902;-81
2022/08/15 02:40:05;;;;;;;;;14.50;12.00;;;;;;;;5101969;27;64521;-80
2022/08/15 02:42:31;;;;;;;;;14.50;12.00;;;;;;;;5103862;27;61708;-81
2022/08/15 02:44:56;;;;;;;;;13.50;10.75;;;;;;;;5102514;27;61755;-81
2022/08/15 02:47:21;;;;;;;;;20.00;13.75;;;;;;;;5102588;27;61736;-81
2022/08/15 02:49:47;;;;;;;;;13.25;12.25;;;;;;;;5102259;27;63615;-81
2022/08/15 02:52:13;;;;;;;;;13.00;11.00;;;;;;;;5103595;27;61738;-81
2022/08/15 02:54:38;;;;;;;;;16.00;11.50;;;;;;;;5101611;27;61841;-81
2022/08/15 02:57:04;;;;;;;;;11.75;11.75;;;;;;;;5104318;27;61756;-81
2022/08/15 02:59:30;;;;;;;;;11.75;10.00;;;;;;;;5102304;27;61762;-81
2022/08/15 03:01:57;;;;;;;;;14.75;11.00;;;;;;;;5104078;27;61849;-80
2022/08/15 03:04:23;;;;;;;;;18.75;12.75;;;;;;;;5102555;27;61762;-81
2022/08/15 03:06:49;;;;;;;;;19.75;14.00;;;;;;;;5103423;27;62017;-80
2022/08/15 03:09:15;;;;;;;;;15.75;11.75;;;;;;;;5102563;27;61953;-80
2022/08/15 03:11:41;;;;;;;;;13.00;13.00;;;;;;;;5103765;27;62107;-80
2022/08/15 03:14:08;;;;;;;;;17.50;13.00;;;;;;;;5103865;27;61822;-81
2022/08/15 03:16:35;;;;;;;;;12.25;11.75;;;;;;;;5102347;27;61776;-80
2022/08/15 03:19:01;;;;;;;;;12.25;11.00;;;;;;;;5103366;27;62993;-81
2022/08/15 03:21:26;;;;;;;;;19.50;13.50;;;;;;;;5103241;27;61959;-80
2022/08/15 03:23:51;;;;;;;;;15.50;12.75;;;;;;;;5101571;27;61864;-80
2022/08/15 03:26:18;;;;;;;;;15.50;12.25;;;;;;;;5102234;27;61888;-80
2022/08/15 03:28:44;;;;;;;;;17.75;12.00;;;;;;;;5101478;27;65171;-81
2022/08/15 03:31:09;;;;;;;;;15.25;12.25;;;;;;;;5103343;27;61820;-81
2022/08/15 03:33:36;;;;;;;;;15.25;12.00;;;;;;;;5102289;27;62153;-81
2022/08/15 03:36:02;;;;;;;;;14.25;11.25;;;;;;;;5101998;27;62281;-81
2022/08/15 03:38:27;;;;;;;;;16.00;14.00;;;;;;;;5101814;27;61933;-81
2022/08/15 03:40:53;;;;;;;;;16.00;12.75;;;;;;;;5101875;27;61756;-80
2022/08/15 03:43:20;;;;;;;;;11.75;11.75;;;;;;;;5103449;27;61764;-80
2022/08/15 03:45:48;;;;;;;;;7.50;6.50;;;;;;;;5103531;27;62018;-81
2022/08/15 03:48:13;;;;;;;;;12.75;10.25;;;;;;;;5102776;27;61853;-81
2022/08/15 03:50:39;;;;;;;;;9.75;9.25;;;;;;;;5103060;27;61787;-81
2022/08/15 03:53:05;;;;;;;;;12.75;10.25;;;;;;;;5102080;27;62044;-80
2022/08/15 03:55:32;;;;;;;;;15.00;14.00;;;;;;;;5103243;27;61893;-81
2022/08/15 03:57:57;;;;;;;;;16.25;10.75;;;;;;;;5102525;27;61980;-80
2022/08/15 04:00:24;;;;;;;;;10.25;10.25;;;;;;;;5103095;27;61956;-81
2022/08/15 04:02:50;;;;;;;;;13.00;11.00;;;;;;;;5103232;27;61971;-81
2022/08/15 04:05:15;;;;;;;;;15.50;10.50;;;;;;;;5103398;27;61815;-81
2022/08/15 04:07:41;;;;;;;;;11.50;10.50;;;;;;;;5100106;27;63621;-81
2022/08/15 04:10:10;;;;;;;;;14.25;9.75;;;;;;;;5102742;27;61731;-81
2022/08/15 04:12:38;;;;;;;;;15.25;11.75;;;;;;;;5105147;27;61759;-81
2022/08/15 04:15:04;;;;;;;;;12.25;10.50;;;;;;;;5106975;27;61650;-81
2022/08/15 04:17:29;;;;;;;;;11.25;10.50;;;;;;;;5104370;27;63712;-81
2022/08/15 04:19:55;;;;;;;;;14.00;10.75;;;;;;;;5105044;27;61915;-81
2022/08/15 04:22:31;;;;;;;;;12.25;10.00;;;;;;;;5104087;27;61769;-81
2022/08/15 04:25:04;;;;;;;;;10.25;10.25;;;;;;;;5104845;27;61763;-81
2022/08/15 04:27:29;;;;;;;;;22.75;13.00;;;;;;;;5104146;27;64662;-80
2022/08/15 04:29:55;;;;;;;;;15.75;11.50;;;;;;;;5106457;27;61690;-81
2022/08/15 04:32:23;;;;;;;;;12.75;10.00;;;;;;;;5104811;27;61884;-80
2022/08/15 04:34:49;;;;;;;;;12.75;10.50;;;;;;;;5104901;27;61693;-81
2022/08/15 04:37:14;;;;;;;;;10.50;10.00;;;;;;;;5103467;27;63717;-80
2022/08/15 04:39:39;;;;;;;;;11.00;8.50;;;;;;;;5104829;27;61934;-80
2022/08/15 04:42:05;;;;;;;;;9.75;9.25;;;;;;;;5104879;27;61847;-80
2022/08/15 04:44:30;;;;;;;;;10.75;9.75;;;;;;;;5105934;27;61847;-80
2022/08/15 04:46:55;;;;;;;;;12.25;10.50;;;;;;;;5105468;27;63006;-81
2022/08/15 04:49:21;;;;;;;;;12.00;9.25;;;;;;;;5104594;27;62013;-80
2022/08/15 04:51:47;;;;;;;;;10.25;10.00;;;;;;;;5104028;27;61828;-80
2022/08/15 04:54:12;;;;;;;;;12.50;10.25;;;;;;;;5105824;27;61733;-80
2022/08/15 04:56:37;;;;;;;;;13.25;10.50;;;;;;;;5103928;27;63545;-81
2022/08/15 04:59:03;;;;;;;;;12.50;9.00;;;;;;;;5105699;27;61741;-80
2022/08/15 05:01:28;;;;;;;;;11.00;8.25;;;;;;;;5104244;27;61776;-80
2022/08/15 05:03:53;;;;;;;;;11.25;7.50;;;;;;;;5106177;27;61775;-81
2022/08/15 05:06:18;;;;;;;;;16.75;9.50;;;;;;;;5104569;27;61825;-81
2022/08/15 05:08:44;;;;;;;;;13.50;10.25;;;;;;;;5105532;27;61888;-81
2022/08/15 05:11:11;;;;;;;;;13.75;12.00;;;;;;;;5104163;27;61966;-80
2022/08/15 05:13:38;;;;;;;;;9.00;8.00;;;;;;;;5105978;27;62107;-81
2022/08/15 05:16:07;;;;;;;;;9.75;8.00;;;;;;;;5105145;27;63070;-81
2022/08/15 05:18:34;;;;;;;;;10.50;9.50;;;;;;;;5105340;27;61720;-81
2022/08/15 05:20:59;;;;;;;;;11.75;10.50;;;;;;;;5103113;27;61964;-80
2022/08/15 05:23:25;;;;;;;;;8.75;8.75;;;;;;;;5103195;27;61801;-80
2022/08/15 05:25:52;;;;;;;;;9.25;7.25;;;;;;;;5103491;27;64641;-81
2022/08/15 05:28:17;;;;;;;;;9.00;9.00;;;;;;;;5104053;27;61873;-81
2022/08/15 05:30:43;;;;;;;;;14.25;9.25;;;;;;;;5104063;27;61741;-81
2022/08/15 05:33:08;;;;;;;;;11.00;7.25;;;;;;;;5105547;27;61757;-80
2022/08/15 05:35:34;;;;;;;;;8.50;7.50;;;;;;;;5102789;27;63650;-80
2022/08/15 05:38:01;;;;;;;;;12.75;7.25;;;;;;;;5104990;27;62281;-81
2022/08/15 05:40:34;;;;;;;;;8.75;8.00;;;;;;;;5105390;27;61891;-80
2022/08/15 05:43:21;;;;;;;;;9.00;9.00;;;;;;;;5105576;27;61661;-81
2022/08/15 05:45:56;;;;;;;;;10.00;8.75;;;;;;;;5103827;27;61942;-80
2022/08/15 05:48:28;;;;;;;;;10.00;8.25;;;;;;;;5103005;27;62070;-80
2022/08/15 05:51:00;;;;;;;;;8.75;8.75;;;;;;;;5105148;27;61682;-81
2022/08/15 05:53:41;;;;;;;;;7.75;7.75;;;;;;;;5104313;27;62073;-80
2022/08/15 05:56:25;;;;;;;;;8.50;8.50;;;;;;;;5103072;27;63579;-81
2022/08/15 05:58:54;;;;;;;;;12.00;9.75;;;;;;;;5104690;27;61887;-81
2022/08/15 06:01:26;;;;;;;;;12.25;11.00;;;;;;;;5103414;27;61807;-81
2022/08/15 06:03:58;;;;;;;;;10.75;9.00;;;;;;;;5104656;27;61714;-81
2022/08/15 06:06:26;;;;;;;;;10.75;10.00;;;;;;;;5102387;27;63471;-80
2022/08/15 06:08:53;;;;;;;;;10.25;9.25;;;;;;;;5104249;27;62148;-80
2022/08/15 06:11:29;;;;;;;;;9.75;8.25;;;;;;;;5104871;27;61923;-80
2022/08/15 06:13:57;;;;;;;;;11.75;8.00;;;;;;;;5104833;27;61845;-80
2022/08/15 06:16:25;;;;;;;;;9.00;8.00;;;;;;;;5104181;27;61843;-81
2022/08/15 06:18:52;;;;;;;;;10.75;9.50;;;;;;;;5102356;27;62102;-80
2022/08/15 06:21:30;;;;;;;;;9.75;8.50;;;;;;;;5104345;27;61769;-81
2022/08/15 06:23:55;;;;;;;;;13.75;10.50;;;;;;;;5102803;27;61718;-80
2022/08/15 06:26:27;;;;;;;;;9.75;9.50;;;;;;;;5103808;27;61894;-80
2022/08/15 06:29:11;;;;;;;;;12.25;8.75;;;;;;;;5102909;27;61951;-80
2022/08/15 06:31:37;;;;;;;;;10.75;9.50;;;;;;;;5104367;27;61697;-81
2022/08/15 06:34:03;;;;;;;;;10.75;9.75;;;;;;;;5103854;27;61740;-81
2022/08/15 06:36:48;;;;;;;;;13.25;9.50;;;;;;;;5102091;27;63481;-80
2022/08/15 06:39:16;;;;;;;;;10.25;8.50;;;;;;;;5103693;27;61888;-81
2022/08/15 06:41:50;;;;;;;;;9.25;9.00;;;;;;;;5102613;27;61842;-81
2022/08/15 06:44:17;;;;;;;;;14.00;11.00;;;;;;;;5102455;27;61828;-81
2022/08/15 06:46:42;;;;;;;;;13.75;11.75;;;;;;;;5102927;27;61881;-81
2022/08/15 06:49:10;;;;;;;;;9.00;8.00;;;;;;;;5102670;27;61753;-81
2022/08/15 06:51:36;;;;;;;;;10.50;10.50;;;;;;;;5102512;27;61864;-81
2022/08/15 06:54:01;;;;;;;;;9.00;8.50;;;;;;;;5103385;27;61773;-80
2022/08/15 06:56:29;;;;;;;;;8.75;7.75;;;;;;;;5103562;27;61832;-81
2022/08/15 06:58:58;;;;;;;;;15.00;10.00;;;;;;;;5103840;27;61752;-81
2022/08/15 07:01:23;;;;;;;;;12.00;11.50;;;;;;;;5103457;27;61689;-80
2022/08/15 07:04:11;;;;;;;;;9.50;9.50;;;;;;;;5102678;27;62179;-81
2022/08/15 07:06:42;;;;;;;;;11.25;9.25;;;;;;;;5102793;27;63035;-81
2022/08/15 07:09:19;;;;;;;;;11.50;8.25;;;;;;;;5103779;27;61877;-81
2022/08/15 07:12:06;;;;;;;;;10.00;8.25;;;;;;;;5102545;27;61930;-81
2022/08/15 07:14:47;;;;;;;;;7.25;7.25;;;;;;;;5102319;27;61749;-81
2022/08/15 07:17:20;;;;;;;;;11.75;7.75;;;;;;;;5102805;27;63099;-81
2022/08/15 07:19:45;;;;;;;;;8.50;7.00;;;;;;;;5103946;27;61898;-81
2022/08/15 07:22:11;;;;;;;;;12.25;8.50;;;;;;;;5103047;27;61915;-81
2022/08/15 07:24:36;;;;;;;;;10.00;10.00;;;;;;;;5102037;27;62156;-81
2022/08/15 07:27:01;;;;;;;;;10.50;8.75;;;;;;;;5103042;27;61895;-81
2022/08/15 07:29:36;;;;;;;;;12.00;8.00;;;;;;;;5103590;27;61779;-81
2022/08/15 07:32:07;;;;;;;;;10.50;9.50;;;;;;;;5101662;27;61894;-81
2022/08/15 07:34:32;;;;;;;;;9.25;8.25;;;;;;;;5103648;27;62058;-81
2022/08/15 07:37:00;;;;;;;;;11.00;8.75;;;;;;;;5102315;27;62810;-81
2022/08/15 07:39:34;;;;;;;;;10.00;8.75;;;;;;;;5103296;27;61895;-80
2022/08/15 07:42:08;;;;;;;;;8.75;7.25;;;;;;;;5102157;27;61780;-81
2022/08/15 07:44:34;;;;;;;;;10.00;9.50;;;;;;;;5103019;27;61926;-80
2022/08/15 07:47:09;;;;;;;;;8.50;8.50;;;;;;;;5106350;27;61762;-81
2022/08/15 07:49:36;;;;;;;;;8.00;8.00;;;;;;;;5105739;27;61843;-81
2022/08/15 07:52:16;;;;;;;;;7.75;7.50;;;;;;;;5106280;27;61976;-80
2022/08/15 07:54:41;;;;;;;;;9.50;9.50;;;;;;;;5106598;27;61657;-81
2022/08/15 07:57:17;;;;;;;;;10.25;7.50;;;;;;;;5104639;27;63459;-80
2022/08/15 08:00:00;;;;;;;;;8.75;6.25;;;;;;;;5106632;27;61804;-81
2022/08/15 08:02:33;;;;;;;;;6.00;4.50;;;;;;;;5106772;27;61817;-81
2022/08/15 08:05:00;;;;;;;;;4.00;2.75;;;;;;;;5106696;27;61682;-80
2022/08/15 08:07:32;;;;;;;;;5.25;5.25;;;;;;;;5105742;27;61937;-80
2022/08/15 08:10:17;;;;;;;;;5.00;5.00;;;;;;;;5105094;27;61973;-81
2022/08/15 08:12:46;;;;;;;;;7.25;6.25;;;;;;;;5106199;27;61901;-80
2022/08/15 08:15:20;;;;;;;;;6.00;4.75;;;;;;;;5106160;27;61811;-81
2022/08/15 08:18:01;;;;;;;;;3.00;0.00;;;;;;;;5105948;27;61990;-81
2022/08/15 08:20:36;;;;;;;;;5.75;5.00;;;;;;;;5106504;27;61688;-80
2022/08/15 08:23:01;;;;;;;;;7.67;3.00;;;;;;;;5104332;27;61755;-80
2022/08/15 08:25:29;;;;;;;;;5.00;4.25;;;;;;;;5106415;27;61826;-80
2022/08/15 08:28:13;;;;;;;;;5.50;4.00;;;;;;;;5105220;27;61848;-80
2022/08/15 08:30:50;;;;;;;;;6.33;4.67;;;;;;;;5104933;27;61724;-80
2022/08/15 08:33:25;;;;;;;;;8.25;5.75;;;;;;;;5104805;27;62126;-80
2022/08/15 08:35:54;;;;;;;;;5.33;5.33;;;;;;;;5104830;27;61883;-81
2022/08/15 08:38:23;;;;;;;;;5.50;5.50;;;;;;;;5104942;27;62012;-81
2022/08/15 08:43:40;;;;;;;;;6.00;6.00;;;;;;;;5085386;28;61898;-81
2022/08/15 08:46:15;;;;;;;;;7.00;6.00;;;;;;;;5083918;27;62035;-81
2022/08/15 08:48:49;;;;;;;;;6.67;5.67;;;;;;;;5084913;27;61963;-81
2022/08/15 08:51:25;;;;;;;;;7.25;6.00;;;;;;;;5083697;27;61840;-81
2022/08/15 08:54:05;;;;;;;;;5.50;5.50;;;;;;;;5083556;27;61921;-80
2022/08/15 08:56:36;;;;;;;;;5.67;5.00;;;;;;;;5084416;28;61749;-81
2022/08/15 08:59:02;;;;;;;;;6.50;5.00;;;;;;;;5082748;28;64185;-80
2022/08/15 09:01:28;;;;;;;;;6.00;6.00;;;;;;;;5085500;27;61799;-81
2022/08/15 09:03:59;;;;;;;;;7.33;5.00;;;;;;;;5085338;27;61813;-80
2022/08/15 09:06:28;;;;;;;;;6.75;5.75;;;;;;;;5083942;27;61741;-81
2022/08/15 09:09:22;;;;;;;;;5.33;5.00;;;;;;;;5084300;27;61895;-81
2022/08/15 09:11:51;;;;;;;;;5.67;4.67;;;;;;;;5083778;27;61751;-81
2022/08/15 09:14:22;;;;;;;;;7.00;6.25;;;;;;;;5085064;27;61942;-81
2022/08/15 09:16:49;;;;;;;;;7.33;5.33;;;;;;;;5085387;27;61914;-80
2022/08/15 09:19:18;;;;;;;;;6.00;4.00;;;;;;;;5082770;28;63561;-80
2022/08/15 09:21:44;;;;;;;;;7.33;6.00;;;;;;;;5084825;27;61752;-81
2022/08/15 09:24:10;;;;;;;;;7.00;6.00;;;;;;;;5082938;28;62056;-81
2022/08/15 09:26:37;;;;;;;;;4.67;4.67;;;;;;;;5084864;28;61961;-81
2022/08/15 09:29:08;;;;;;;;;6.33;5.67;;;;;;;;5084408;27;62927;-81
2022/08/15 09:31:38;;;;;;;;;6.00;4.67;;;;;;;;5083269;28;61951;-81
2022/08/15 09:34:30;;;;;;;;;5.33;5.33;;;;;;;;5083678;27;61959;-81
2022/08/15 09:36:55;;;;;;;;;5.67;5.67;;;;;;;;5084484;28;61697;-81
2022/08/15 09:39:39;;;;;;;;;4.67;4.67;;;;;;;;5082632;28;64466;-81
2022/08/15 09:42:07;;;;;;;;;5.00;5.00;;;;;;;;5093646;27;62347;-81
2022/08/15 09:44:36;;;;;;;;;6.67;4.00;;;;;;;;5103515;27;61691;-80
2022/08/15 09:47:12;;;;;;;;;7.00;5.33;;;;;;;;5104103;27;61810;-81
2022/08/15 09:49:57;;;;;;;;;8.00;5.33;;;;;;;;5104555;27;61921;-81
2022/08/15 09:52:23;;;;;;;;;6.00;5.67;;;;;;;;5102720;27;62057;-81
2022/08/15 09:54:56;;;;;;;;;5.33;4.67;;;;;;;;5102869;27;61978;-80
2022/08/15 09:57:22;;;;;;;;;5.50;5.50;;;;;;;;5105154;27;61901;-81
2022/08/15 09:59:55;;;;;;;;;5.67;5.00;;;;;;;;5103861;27;63590;-81
2022/08/15 10:02:22;;;;;;;;;5.00;4.00;;;;;;;;5104863;27;61981;-81
2022/08/15 10:04:47;;;;;;;;;5.67;4.67;;;;;;;;5104946;27;61911;-81
2022/08/15 10:07:13;;;;;;;;;5.33;4.00;;;;;;;;5104240;27;61916;-81
2022/08/15 10:09:42;;;;;;;;;5.00;5.00;;;;;;;;5101940;27;63533;-81
2022/08/15 10:12:08;;;;;;;;;5.00;5.00;;;;;;;;5104639;27;61776;-81
2022/08/15 10:14:40;;;;;;;;;6.33;4.33;;;;;;;;5104506;27;61597;-81
2022/08/15 10:17:27;;;;;;;;;5.67;5.67;;;;;;;;5104863;27;61754;-81
2022/08/15 10:19:54;;;;;;;;;5.00;5.00;;;;;;;;5103793;27;62568;-81
2022/08/15 10:22:22;;;;;;;;;6.00;5.00;;;;;;;;5104122;27;61801;-81
2022/08/15 10:25:06;;;;;;;;;7.00;5.33;;;;;;;;5102288;27;61763;-81
2022/08/15 10:27:52;;;;;;;;;5.00;5.00;;;;;;;;5103218;27;61907;-81
2022/08/15 10:30:17;;;;;;;;;4.67;4.33;;;;;;;;5103494;27;61788;-81
2022/08/15 10:32:43;;;;;;;;;4.00;2.00;;;;;;;;5102906;27;61766;-81
2022/08/15 10:35:18;;;;;;;;;2.67;2.67;;;;;;;;5103235;27;61899;-82
2022/08/15 10:37:51;;;;;;;;;3.67;3.67;;;;;;;;5102625;27;61737;-81
2022/08/15 10:40:17;;;;;;;;;3.33;2.67;;;;;;;;5103144;27;62841;-81
2022/08/15 10:43:02;;;;;;;;;2.67;2.67;;;;;;;;5102447;27;61785;-81
2022/08/15 10:45:46;;;;;;;;;2.00;2.00;;;;;;;;5102889;27;61791;-81
2022/08/15 10:48:16;;;;;;;;;1.00;1.00;;;;;;;;5104126;27;62029;-81
2022/08/15 10:50:51;;;;;;;;;3.00;1.67;;;;;;;;5103362;27;61805;-81
2022/08/15 10:53:39;;;;;;;;;1.67;1.67;;;;;;;;5101505;27;62033;-81
2022/08/15 10:56:16;;;;;;;;;3.00;1.33;;;;;;;;5102677;27;61884;-81
2022/08/15 10:58:43;;;;;;;;;2.00;2.00;;;;;;;;5104032;27;61725;-81
2022/08/15 11:01:17;;;;;;;;;2.33;2.33;;;;;;;;5103110;27;61827;-81
2022/08/15 11:03:59;;;;;;;;;2.33;2.33;;;;;;;;5104152;27;61839;-81
2022/08/15 11:06:25;;;;;;;;;3.00;2.00;;;;;;;;5103968;27;61675;-81
2022/08/15 11:08:53;;;;;;;;;2.00;2.00;;;;;;;;5103108;27;62162;-81
2022/08/15 11:11:20;;;;;;;;;2.00;2.00;;;;;;;;5103024;27;61925;-81
2022/08/15 11:13:50;;;;;;;;;3.67;2.00;;;;;;;;5102481;27;62010;-81
2022/08/15 11:16:18;;;;;;;;;1.67;1.67;;;;;;;;5102508;27;61884;-79
2022/08/15 11:18:51;;;;;;;;;2.67;2.67;;;;;;;;5102035;27;61876;-79
2022/08/15 11:21:24;;;;;;;;;3.00;2.00;;;;;;;;5101125;27;63815;-80
2022/08/15 11:23:52;;;;;;;;;3.33;2.00;;;;;;;;5101187;27;61783;-80
2022/08/15 11:26:21;;;;;;;;;3.00;1.33;;;;;;;;5103764;27;61749;-79
2022/08/15 11:28:46;;;;;;;;;2.33;2.33;;;;;;;;5103575;27;61855;-79
2022/08/15 11:31:16;;;;;;;;;2.67;2.67;;;;;;;;5101645;27;63656;-79
2022/08/15 11:33:43;;;;;;;;;4.00;2.00;;;;;;;;5102076;27;61832;-80
2022/08/15 11:36:10;;;;;;;;;3.00;2.00;;;;;;;;5103512;27;62152;-79
2022/08/15 11:38:36;;;;;;;;;3.33;1.67;;;;;;;;5101498;27;62092;-79
2022/08/15 11:41:02;;;;;;;;;2.67;2.67;;;;;;;;5102525;27;61862;-79
2022/08/15 11:43:28;;;;;;;;;3.33;1.67;;;;;;;;5103464;27;61879;-79
2022/08/15 11:45:54;;;;;;;;;2.00;2.00;;;;;;;;5101909;27;61773;-81
2022/08/15 11:48:31;;;;;;;;;1.00;1.00;;;;;;;;5103085;27;61935;-82
2022/08/15 11:51:02;;;;;;;;;3.00;2.00;;;;;;;;5102512;27;61913;-81
2022/08/15 11:53:30;;;;;;;;;2.00;2.00;;;;;;;;5102227;27;61662;-81
2022/08/15 11:55:55;;;;;;;;;4.00;4.00;;;;;;;;5101783;27;61932;-81
2022/08/15 11:58:27;;;;;;;;;1.67;1.67;;;;;;;;5101986;27;62088;-81
2022/08/15 12:00:57;;;;;;;;;2.00;2.00;;;;;;;;5102690;27;61860;-79
2022/08/15 12:03:32;;;;;;;;;1.33;1.33;;;;;;;;5103336;27;61803;-80
2022/08/15 12:06:13;;;;;;;;;4.00;2.33;;;;;;;;5102634;27;61967;-80
2022/08/15 12:08:39;;;;;;;;;2.67;2.67;;;;;;;;5101351;27;61921;-80
2022/08/15 12:11:04;;;;;;;;;1.00;1.00;;;;;;;;5102718;27;61910;-79
2022/08/15 12:13:29;;;;;;;;;1.00;1.00;;;;;;;;5101751;27;62008;-82
2022/08/15 12:15:55;;;;;;;;;0.00;0.00;;;;;;;;5102882;27;61718;-82
2022/08/15 12:18:22;;;;;;;;;2.00;0.33;;;;;;;;5103202;27;61778;-81
2022/08/15 12:20:59;;;;;;;;;1.00;1.00;;;;;;;;5100597;27;64807;-81
2022/08/15 12:23:30;;;;;;;;;1.00;1.00;;;;;;;;5101972;27;61753;-81
2022/08/15 12:26:04;;;;;;;;;1.67;1.00;;;;;;;;5101498;27;61755;-81
2022/08/15 12:28:30;;;;;;;;;2.00;1.00;;;;;;;;5101441;27;62257;-82
2022/08/15 12:30:57;;;;;;;;;1.33;0.33;;;;;;;;5103131;27;62213;-82
2022/08/15 12:33:23;;;;;;;;;1.33;1.00;;;;;;;;5104945;27;62087;-82
2022/08/15 12:35:49;;;;;;;;;1.33;0.00;;;;;;;;5104373;27;61801;-81
2022/08/15 12:38:15;;;;;;;;;1.00;1.00;;;;;;;;5105975;27;61761;-82
2022/08/15 12:40:40;;;;;;;;;1.00;1.00;;;;;;;;5104083;27;64138;-82
2022/08/15 12:43:06;;;;;;;;;1.00;1.00;;;;;;;;5104754;27;61788;-82
2022/08/15 12:45:31;;;;;;;;;0.67;0.67;;;;;;;;5106010;27;61926;-82
2022/08/15 12:47:57;;;;;;;;;1.00;1.00;;;;;;;;5105857;27;61675;-81
2022/08/15 12:50:22;;;;;;;;;2.00;1.00;;;;;;;;5103938;27;63360;-80
2022/08/15 12:52:48;;;;;;;;;1.67;1.00;;;;;;;;5104423;27;61729;-79
2022/08/15 12:55:13;;;;;;;;;1.33;0.00;;;;;;;;5105638;27;61836;-79
2022/08/15 12:57:39;;;;;;;;;0.00;0.00;;;;;;;;5104788;27;61744;-79
2022/08/15 13:00:06;;;;;;;;;1.33;1.33;;;;;;;;5105314;27;62126;-79
2022/08/15 13:02:31;;;;;;;;;2.00;1.00;;;;;;;;5105488;27;62138;-79
2022/08/15 13:04:57;;;;;;;;;1.00;1.00;;;;;;;;5105490;27;62109;-79
2022/08/15 13:07:23;;;;;;;;;0.33;0.33;;;;;;;;5104285;27;61770;-79
2022/08/15 13:09:48;;;;;;;;;0.33;0.33;;;;;;;;5103753;27;64726;-79
2022/08/15 13:12:14;;;;;;;;;1.33;1.00;;;;;;;;5104245;27;61995;-79
2022/08/15 13:14:40;;;;;;;;;0.00;0.00;;;;;;;;5104055;27;61794;-79
2022/08/15 13:17:06;;;;;;;;;1.00;0.00;;;;;;;;5105954;27;61690;-79
2022/08/15 13:23:34;;;;;;;;;2.00;1.00;;;;;;;;5103391;27;64848;-80
2022/08/15 13:25:03;;;;;;;;;1.00;1.00;;;;;;;;5105143;27;61620;-79
2022/08/15 13:27:32;;;;;;;;;1.00;1.00;;;;;;;;5105471;27;61775;-79
2022/08/15 13:29:58;;;;;;;;;2.33;1.33;;;;;;;;5104797;27;63086;-80
2022/08/15 13:32:24;;;;;;;;;1.67;1.67;;;;;;;;5103594;27;61990;-79
2022/08/15 13:34:49;;;;;;;;;2.00;2.00;;;;;;;;5105526;27;61963;-79
2022/08/15 13:37:14;;;;;;;;;2.00;2.00;;;;;;;;5105183;27;61826;-80
2022/08/15 13:39:40;;;;;;;;;3.00;3.00;;;;;;;;5103205;27;63583;-80
2022/08/15 13:42:05;;;;;;;;;1.33;1.33;;;;;;;;5104794;27;62095;-80
2022/08/15 13:44:32;;;;;;;;;3.00;3.00;;;;;;;;5104681;27;61933;-79
2022/08/15 13:46:58;;;;;;;;;2.67;2.67;;;;;;;;5103741;27;61761;-79
2022/08/15 13:49:23;;;;;;;;;2.67;2.67;;;;;;;;5102821;27;63990;-79
2022/08/15 13:51:50;;;;;;;;;5.00;2.00;;;;;;;;5104728;27;61638;-79
2022/08/15 13:54:18;;;;;;;;;2.33;2.33;;;;;;;;5103376;27;61724;-80
2022/08/15 13:56:43;;;;;;;;;3.00;3.00;;;;;;;;5103872;27;61772;-80
2022/08/15 13:59:10;;;;;;;;;4.33;4.33;;;;;;;;5103929;27;61756;-80
2022/08/15 14:01:35;;;;;;;;;4.67;3.67;;;;;;;;5104701;27;61863;-80
2022/08/15 14:04:04;;;;;;;;;5.33;3.00;;;;;;;;5104760;27;61793;-80
2022/08/15 14:06:29;;;;;;;;;4.00;3.00;;;;;;;;5103595;27;62116;-79
2022/08/15 14:08:55;;;;;;;;;5.33;4.67;;;;;;;;5102287;27;62854;-80
2022/08/15 14:11:22;;;;;;;;;6.67;5.00;;;;;;;;5103519;27;62031;-80
2022/08/15 14:13:47;;;;;;;;;4.33;4.33;;;;;;;;5104890;27;61890;-80
2022/08/15 14:16:13;;;;;;;;;4.33;4.33;;;;;;;;5104513;27;62023;-80
2022/08/15 14:18:39;;;;;;;;;6.00;3.67;;;;;;;;5103780;27;61908;-80
2022/08/15 14:21:05;;;;;;;;;6.00;4.33;;;;;;;;5104617;27;62033;-79
2022/08/15 14:23:31;;;;;;;;;4.33;4.33;;;;;;;;5102469;27;62087;-80
2022/08/15 14:25:56;;;;;;;;;6.33;4.00;;;;;;;;5104429;27;61804;-80
2022/08/15 14:28:22;;;;;;;;;3.00;3.00;;;;;;;;5103742;27;61952;-79
2022/08/15 14:30:48;;;;;;;;;7.00;5.33;;;;;;;;5102493;27;61769;-80
2022/08/15 14:33:14;;;;;;;;;5.00;4.00;;;;;;;;5103011;27;61667;-80
2022/08/15 14:35:39;;;;;;;;;4.00;4.00;;;;;;;;5104477;27;61710;-80
2022/08/15 14:38:05;;;;;;;;;3.00;3.00;;;;;;;;5101666;27;63500;-79
2022/08/15 14:40:31;;;;;;;;;5.67;5.00;;;;;;;;5102774;27;61802;-80
2022/08/15 14:42:57;;;;;;;;;4.00;4.00;;;;;;;;5104277;27;61808;-80
2022/08/15 14:45:23;;;;;;;;;5.67;4.00;;;;;;;;5103618;27;61765;-80
2022/08/15 14:47:49;;;;;;;;;5.33;5.33;;;;;;;;5103627;27;61806;-80
2022/08/15 14:50:16;;;;;;;;;4.67;4.67;;;;;;;;5103974;27;61861;-80
2022/08/15 14:52:42;;;;;;;;;3.67;3.33;;;;;;;;5102360;27;61895;-80